createdAt,value
2023-04-08T00:00:55.509Z,97.11
2023-04-08T00:03:23.779Z,97.15
2023-04-08T00:05:51.906Z,97.16
2023-04-08T00:08:20.291Z,97.19
2023-04-08T00:10:49.794Z,97.24
2023-04-08T00:13:18.110Z,97.20
2023-04-08T00:15:47.016Z,97.22
2023-04-08T00:18:15.653Z,97.24
2023-04-08T00:20:44.174Z,97.24
2023-04-08T00:23:12.400Z,97.23
2023-04-08T00:25:41.102Z,97.24
2023-04-08T00:28:10.628Z,97.29
2023-04-08T00:30:38.830Z,97.30
2023-04-08T00:33:07.124Z,97.27
2023-04-08T00:35:35.572Z,97.31
2023-04-08T00:38:04.258Z,97.32
2023-04-08T00:40:32.518Z,97.34
2023-04-08T00:43:00.742Z,97.36
2023-04-08T00:45:30.823Z,97.34
2023-04-08T00:47:59.016Z,97.37
2023-04-08T00:50:27.095Z,97.38
2023-04-08T00:52:55.146Z,97.36
2023-04-08T00:55:23.354Z,97.41
2023-04-08T00:57:51.404Z,97.40
2023-04-08T01:00:21.735Z,97.38
2023-04-08T01:02:56.980Z,97.39
2023-04-08T01:05:30.189Z,97.41
2023-04-08T01:08:00.983Z,97.41
2023-04-08T01:10:31.628Z,97.41
2023-04-08T01:13:02.935Z,97.39
2023-04-08T01:15:32.078Z,97.42
2023-04-08T01:18:02.218Z,97.39
2023-04-08T01:20:30.730Z,97.44
2023-04-08T01:23:07.317Z,97.43
2023-04-08T01:25:37.255Z,97.43
2023-04-08T01:28:08.566Z,97.46
2023-04-08T01:30:39.305Z,97.46
2023-04-08T01:33:07.899Z,97.48
2023-04-08T01:35:37.169Z,97.49
2023-04-08T01:38:06.717Z,97.53
2023-04-08T01:40:35.835Z,97.52
2023-04-08T01:43:07.105Z,97.51
2023-04-08T01:45:35.536Z,97.51
2023-04-08T01:48:04.611Z,97.50
2023-04-08T01:50:33.517Z,97.48
2023-04-08T01:53:02.350Z,97.54
2023-04-08T01:55:31.797Z,97.55
2023-04-08T01:58:01.814Z,97.56
2023-04-08T02:00:32.636Z,97.59
2023-04-08T02:03:02.097Z,97.57
2023-04-08T02:05:30.431Z,97.61
2023-04-08T02:07:58.462Z,97.63
2023-04-08T02:10:26.542Z,97.58
2023-04-08T02:12:54.822Z,97.60
2023-04-08T02:15:23.054Z,97.58
2023-04-08T02:17:56.388Z,97.62
2023-04-08T02:20:32.248Z,97.63
2023-04-08T02:23:04.698Z,97.61
2023-04-08T02:25:36.062Z,97.65
2023-04-08T02:28:04.846Z,97.63
2023-04-08T02:30:34.104Z,97.67
2023-04-08T02:33:05.231Z,97.66
2023-04-08T02:35:33.918Z,97.70
2023-04-08T02:38:02.163Z,97.69
2023-04-08T02:40:32.530Z,97.73
2023-04-08T02:43:03.354Z,97.73
2023-04-08T02:45:33.793Z,97.69
2023-04-08T02:48:03.501Z,97.74
2023-04-08T02:50:31.826Z,97.72
2023-04-08T02:53:00.164Z,97.76
2023-04-08T02:55:28.623Z,97.76
2023-04-08T02:57:59.147Z,97.78
2023-04-08T03:00:28.382Z,97.80
2023-04-08T03:02:56.585Z,97.79
2023-04-08T03:05:27.297Z,97.82
2023-04-08T03:07:55.491Z,97.79
2023-04-08T03:10:24.013Z,97.81
2023-04-08T03:12:52.128Z,97.78
2023-04-08T03:15:21.403Z,97.81
2023-04-08T03:17:49.682Z,97.83
2023-04-08T03:20:21.580Z,97.85
2023-04-08T03:22:51.480Z,97.86
2023-04-08T03:25:24.661Z,97.89
2023-04-08T03:27:53.048Z,97.91
2023-04-08T03:30:21.490Z,97.90
2023-04-08T03:32:49.766Z,97.89
2023-04-08T03:35:18.412Z,97.94
2023-04-08T03:37:46.750Z,97.95
2023-04-08T03:40:16.340Z,97.94
2023-04-08T03:42:44.589Z,97.99
2023-04-08T03:45:13.743Z,97.95
2023-04-08T03:47:42.692Z,97.98
2023-04-08T03:50:11.642Z,97.97
2023-04-08T03:52:39.949Z,97.97
2023-04-08T03:55:08.666Z,98.03
2023-04-08T03:57:40.447Z,98.03
2023-04-08T04:00:09.821Z,98.06
2023-04-08T04:02:38.099Z,98.06
2023-04-08T04:05:06.897Z,98.07
2023-04-08T04:07:34.952Z,98.08
2023-04-08T04:10:03.138Z,98.11
2023-04-08T04:12:31.179Z,98.06
2023-04-08T04:15:00.696Z,98.07
2023-04-08T04:17:28.903Z,98.07
2023-04-08T04:19:57.263Z,98.10
2023-04-08T04:22:26.368Z,98.13
2023-04-08T04:24:54.884Z,98.13
2023-04-08T04:27:22.914Z,98.15
2023-04-08T04:29:51.007Z,98.18
2023-04-08T04:32:22.630Z,98.20
2023-04-08T04:34:51.491Z,98.19
2023-04-08T04:37:19.540Z,98.18
2023-04-08T04:39:51.718Z,98.16
2023-04-08T04:42:19.954Z,98.19
2023-04-08T04:44:49.311Z,98.22
2023-04-08T04:47:17.560Z,98.22
2023-04-08T04:49:48.059Z,98.23
2023-04-08T04:52:16.071Z,98.23
2023-04-08T04:54:45.089Z,98.25
2023-04-08T04:57:14.779Z,98.28
2023-04-08T04:59:42.860Z,98.30
2023-04-08T05:02:12.337Z,98.29
2023-04-08T05:04:40.563Z,98.31
2023-04-08T05:07:10.344Z,98.28
2023-04-08T05:09:41.119Z,98.31
2023-04-08T05:12:09.221Z,98.31
2023-04-08T05:14:37.507Z,98.35
2023-04-08T05:17:06.513Z,98.39
2023-04-08T05:19:34.790Z,98.34
2023-04-08T05:22:02.969Z,98.37
2023-04-08T05:24:32.776Z,98.39
2023-04-08T05:27:01.229Z,98.38
2023-04-08T05:29:29.322Z,98.38
2023-04-08T05:31:59.616Z,98.42
2023-04-08T05:34:27.734Z,98.42
2023-04-08T05:36:58.086Z,98.41
2023-04-08T05:39:26.625Z,98.35
2023-04-08T05:41:56.105Z,98.37
2023-04-08T05:44:24.804Z,98.41
2023-04-08T05:46:53.115Z,98.35
2023-04-08T05:49:22.546Z,98.39
2023-04-08T05:51:50.819Z,98.43
2023-04-08T05:54:21.416Z,98.42
2023-04-08T05:56:49.725Z,98.44
2023-04-08T05:59:19.078Z,98.41
2023-04-08T06:01:47.186Z,98.43
2023-04-08T06:04:17.940Z,98.45
2023-04-08T06:06:49.901Z,98.45
2023-04-08T06:09:19.322Z,98.49
2023-04-08T06:11:50.689Z,98.45
2023-04-08T06:14:21.003Z,98.50
2023-04-08T06:16:49.042Z,98.49
2023-04-08T06:19:17.777Z,98.47
2023-04-08T06:21:45.954Z,98.50
2023-04-08T06:24:13.969Z,98.68
2023-04-08T06:26:42.553Z,98.97
2023-04-08T06:29:10.703Z,98.98
2023-04-08T06:31:40.098Z,98.96
2023-04-08T06:34:08.204Z,98.87
2023-04-08T06:36:36.886Z,98.78
2023-04-08T06:39:04.985Z,98.73
2023-04-08T06:41:33.045Z,98.60
2023-04-08T06:44:01.412Z,98.60
2023-04-08T06:46:29.569Z,98.72
2023-04-08T06:48:59.033Z,98.78
2023-04-08T06:51:28.056Z,98.69
2023-04-08T06:53:56.372Z,98.66
2023-04-08T06:56:26.246Z,98.55
2023-04-08T06:58:54.263Z,98.31
2023-04-08T07:01:22.705Z,98.01
2023-04-08T07:03:51.064Z,97.97
2023-04-08T07:06:20.641Z,97.80
2023-04-08T07:08:49.058Z,97.73
2023-04-08T07:11:17.265Z,97.41
2023-04-08T07:13:45.450Z,97.58
2023-04-08T07:16:13.454Z,97.29
2023-04-08T07:18:42.545Z,97.37
2023-04-08T07:21:10.668Z,96.64
2023-04-08T07:23:40.387Z,96.49
2023-04-08T07:26:08.541Z,96.54
2023-04-08T07:28:36.532Z,95.99
2023-04-08T07:31:12.204Z,95.56
2023-04-08T07:33:40.330Z,95.49
2023-04-08T07:36:08.717Z,95.37
2023-04-08T07:38:36.785Z,95.50
2023-04-08T07:41:06.405Z,95.50
2023-04-08T07:43:37.319Z,95.64
2023-04-08T07:46:05.981Z,95.70
2023-04-08T07:48:35.002Z,95.75
2023-04-08T07:51:09.332Z,95.67
2023-04-08T07:53:39.282Z,95.74
2023-04-08T07:56:13.413Z,95.64
2023-04-08T07:58:41.820Z,95.59
2023-04-08T08:01:17.935Z,95.32
2023-04-08T08:03:47.684Z,94.97
2023-04-08T08:06:16.421Z,94.92
2023-04-08T08:08:44.668Z,94.77
2023-04-08T08:11:14.095Z,94.08
2023-04-08T08:13:42.344Z,93.88
2023-04-08T08:16:11.911Z,93.82
2023-04-08T08:18:41.155Z,93.76
2023-04-08T08:21:09.658Z,93.26
2023-04-08T08:23:38.451Z,93.37
2023-04-08T08:26:09.708Z,93.43
2023-04-08T08:28:39.625Z,93.04
2023-04-08T08:31:08.133Z,92.59
2023-04-08T08:33:36.726Z,92.87
2023-04-08T08:36:05.918Z,92.72
2023-04-08T08:38:34.202Z,92.01
2023-04-08T08:41:04.044Z,91.63
2023-04-08T08:43:33.642Z,91.37
2023-04-08T08:46:03.749Z,91.04
2023-04-08T08:48:32.760Z,90.96
2023-04-08T08:51:01.270Z,90.80
2023-04-08T08:53:33.473Z,90.93
2023-04-08T08:58:34.783Z,89.96
2023-04-08T09:01:04.148Z,89.73
2023-04-08T09:03:32.624Z,89.27
2023-04-08T09:06:02.544Z,89.04
2023-04-08T09:08:32.581Z,88.90
2023-04-08T09:11:18.149Z,89.04
2023-04-08T09:13:46.633Z,88.67
2023-04-08T09:16:18.351Z,88.74
2023-04-08T09:18:49.501Z,89.25
2023-04-08T09:21:18.706Z,88.35
2023-04-08T09:23:48.181Z,88.42
2023-04-08T09:26:17.620Z,88.16
2023-04-08T09:28:58.685Z,88.79
2023-04-08T09:31:29.252Z,88.42
2023-04-08T09:33:58.553Z,87.77
2023-04-08T09:36:27.958Z,88.14
2023-04-08T09:38:58.950Z,88.56
2023-04-08T09:41:29.828Z,87.10
2023-04-08T09:43:59.245Z,86.05
2023-04-08T09:46:34.641Z,85.76
2023-04-08T09:49:07.236Z,86.03
2023-04-08T09:51:39.742Z,85.21
2023-04-08T09:54:13.833Z,84.25
2023-04-08T09:56:49.949Z,84.56
2023-04-08T09:59:21.823Z,84.15
2023-04-08T10:01:54.423Z,84.12
2023-04-08T10:04:24.402Z,84.77
2023-04-08T10:06:55.456Z,85.02
2023-04-08T10:09:23.865Z,85.00
2023-04-08T10:11:52.069Z,85.16
2023-04-08T10:14:22.179Z,85.51
2023-04-08T10:16:52.014Z,84.79
2023-04-08T10:19:41.428Z,84.73
2023-04-08T10:22:47.962Z,84.78
2023-04-08T10:25:30.882Z,84.88
2023-04-08T10:27:59.461Z,84.99
2023-04-08T10:30:41.182Z,85.26
2023-04-08T10:33:15.506Z,85.39
2023-04-08T10:35:46.380Z,85.59
2023-04-08T10:38:16.068Z,85.62
2023-04-08T10:40:45.178Z,85.77
2023-04-08T10:43:14.355Z,86.04
2023-04-08T10:45:43.106Z,85.38
2023-04-08T10:48:17.787Z,85.12
2023-04-08T10:50:46.821Z,85.02
2023-04-08T10:53:15.061Z,84.64
2023-04-08T10:55:43.718Z,84.59
2023-04-08T10:58:12.768Z,84.35
2023-04-08T11:00:41.675Z,84.84
2023-04-08T11:03:16.085Z,85.11
2023-04-08T11:05:45.601Z,84.41
2023-04-08T11:08:13.650Z,84.71
2023-04-08T11:10:41.980Z,84.10
2023-04-08T11:13:10.747Z,82.43
2023-04-08T11:15:38.939Z,81.60
2023-04-08T11:18:07.261Z,81.43
2023-04-08T11:20:38.389Z,81.60
2023-04-08T11:23:14.894Z,80.94
2023-04-08T11:25:43.281Z,79.64
2023-04-08T11:28:11.687Z,78.68
2023-04-08T11:30:40.467Z,78.41
2023-04-08T11:33:09.148Z,77.83
2023-04-08T11:35:41.094Z,77.92
2023-04-08T11:38:11.185Z,77.13
2023-04-08T11:40:39.610Z,77.13
2023-04-08T11:43:11.539Z,76.60
2023-04-08T11:45:40.333Z,76.39
2023-04-08T11:48:11.690Z,75.97
2023-04-08T11:50:39.917Z,76.12
2023-04-08T11:53:19.628Z,75.62
2023-04-08T11:55:48.556Z,74.79
2023-04-08T11:58:16.961Z,73.62
2023-04-08T12:00:45.673Z,75.05
2023-04-08T12:03:14.134Z,74.03
2023-04-08T12:05:42.608Z,72.72
2023-04-08T12:08:10.945Z,72.26
2023-04-08T12:10:42.619Z,72.86
2023-04-08T12:13:10.775Z,73.13
2023-04-08T12:15:38.888Z,72.64
2023-04-08T12:18:07.212Z,72.54
2023-04-08T12:20:35.234Z,72.76
2023-04-08T12:23:03.318Z,73.51
2023-04-08T12:25:32.165Z,72.56
2023-04-08T12:28:02.753Z,71.39
2023-04-08T12:30:31.853Z,71.16
2023-04-08T12:33:00.751Z,70.98
2023-04-08T12:35:28.888Z,71.05
2023-04-08T12:37:56.962Z,71.11
2023-04-08T12:40:25.014Z,70.28
2023-04-08T12:42:53.125Z,70.00
2023-04-08T12:45:22.608Z,70.21
2023-04-08T12:47:51.855Z,69.90
2023-04-08T12:50:20.053Z,69.00
2023-04-08T12:52:48.160Z,69.77
2023-04-08T12:55:16.501Z,68.65
2023-04-08T12:57:45.027Z,69.38
2023-04-08T13:00:14.399Z,68.61
2023-04-08T13:02:44.305Z,69.10
2023-04-08T13:05:12.565Z,69.59
2023-04-08T13:07:40.691Z,68.75
2023-04-08T13:10:09.800Z,67.64
2023-04-08T13:12:40.135Z,67.89
2023-04-08T13:15:10.081Z,67.86
2023-04-08T13:17:38.169Z,67.45
2023-04-08T13:20:10.776Z,67.79
2023-04-08T13:22:38.832Z,67.93
2023-04-08T13:25:07.364Z,67.82
2023-04-08T13:27:35.435Z,68.59
2023-04-08T13:30:03.653Z,68.11
2023-04-08T13:32:32.926Z,68.03
2023-04-08T13:35:02.888Z,67.80
2023-04-08T13:37:32.338Z,67.77
2023-04-08T13:40:00.395Z,67.60
2023-04-08T13:42:28.458Z,67.52
2023-04-08T13:44:56.548Z,68.22
2023-04-08T13:47:24.740Z,67.18
2023-04-08T13:49:53.389Z,66.15
2023-04-08T13:52:21.495Z,66.56
2023-04-08T13:54:50.942Z,65.87
2023-04-08T13:57:18.975Z,66.05
2023-04-08T13:59:46.979Z,65.26
2023-04-08T14:02:15.035Z,65.10
2023-04-08T14:04:43.708Z,65.59
2023-04-08T14:07:11.788Z,65.71
2023-04-08T14:09:39.974Z,64.40
2023-04-08T14:12:09.619Z,64.96
2023-04-08T14:14:37.611Z,63.44
2023-04-08T14:17:09.577Z,63.88
2023-04-08T14:19:37.774Z,63.85
2023-04-08T14:22:05.855Z,63.66
2023-04-08T14:24:34.412Z,62.83
2023-04-08T14:27:03.485Z,62.42
2023-04-08T14:29:32.807Z,62.80
2023-04-08T14:32:01.427Z,62.52
2023-04-08T14:34:29.495Z,63.40
2023-04-08T14:36:57.594Z,63.93
2023-04-08T14:39:25.977Z,64.27
2023-04-08T14:41:54.064Z,63.96
2023-04-08T14:44:22.047Z,64.25
2023-04-08T14:46:51.554Z,64.17
2023-04-08T14:49:19.774Z,64.49
2023-04-08T14:51:47.828Z,64.84
2023-04-08T14:54:16.819Z,64.66
2023-04-08T14:56:44.914Z,62.42
2023-04-08T14:59:12.992Z,63.72
2023-04-08T15:01:48.786Z,61.83
2023-04-08T15:04:18.221Z,61.73
2023-04-08T15:06:46.308Z,61.94
2023-04-08T15:09:14.391Z,61.55
2023-04-08T15:11:42.498Z,60.75
2023-04-08T15:14:10.513Z,60.77
2023-04-08T15:16:38.722Z,60.64
2023-04-08T15:19:06.796Z,60.11
2023-04-08T15:21:36.292Z,60.16
2023-04-08T15:24:04.591Z,60.00
2023-04-08T15:26:33.405Z,60.00
2023-04-08T15:29:01.594Z,58.83
2023-04-08T15:31:29.708Z,59.04
2023-04-08T15:33:58.446Z,58.94
2023-04-08T15:36:26.695Z,59.07
2023-04-08T15:38:56.202Z,59.90
2023-04-08T15:41:24.352Z,60.46
2023-04-08T15:43:53.267Z,59.40
2023-04-08T15:46:21.817Z,59.46
2023-04-08T15:48:50.814Z,59.42
2023-04-08T15:51:20.319Z,58.92
2023-04-08T15:53:50.364Z,59.22
2023-04-08T15:56:20.398Z,58.00
2023-04-08T15:58:48.600Z,58.86
2023-04-08T16:01:18.728Z,60.22
2023-04-08T16:03:47.057Z,59.83
2023-04-08T16:06:15.579Z,60.06
2023-04-08T16:08:44.782Z,59.98
2023-04-08T16:11:12.930Z,60.12
2023-04-08T16:13:43.117Z,60.44
2023-04-08T16:16:12.344Z,60.09
2023-04-08T16:18:41.643Z,60.28
2023-04-08T16:21:09.737Z,60.38
2023-04-08T16:23:38.416Z,60.62
2023-04-08T16:26:07.997Z,60.32
2023-04-08T16:28:36.989Z,59.42
2023-04-08T16:31:06.852Z,59.73
2023-04-08T16:33:34.991Z,60.16
2023-04-08T16:36:04.335Z,60.11
2023-04-08T16:38:33.083Z,60.67
2023-04-08T16:41:01.445Z,60.42
2023-04-08T16:43:29.459Z,59.85
2023-04-08T16:45:57.547Z,60.54
2023-04-08T16:48:27.104Z,60.54
2023-04-08T16:50:55.396Z,60.56
2023-04-08T16:53:23.501Z,60.04
2023-04-08T16:55:52.077Z,60.93
2023-04-08T16:58:20.122Z,61.21
2023-04-08T17:00:48.184Z,61.48
2023-04-08T17:03:16.457Z,62.00
2023-04-08T17:05:46.048Z,62.84
2023-04-08T17:08:14.348Z,62.98
2023-04-08T17:10:43.345Z,63.20
2023-04-08T17:13:14.233Z,63.10
2023-04-08T17:15:43.393Z,63.89
2023-04-08T17:18:11.664Z,63.62
2023-04-08T17:20:39.714Z,63.78
2023-04-08T17:23:09.722Z,64.02
2023-04-08T17:25:38.139Z,64.33
2023-04-08T17:28:06.174Z,64.52
2023-04-08T17:30:34.380Z,66.44
2023-04-08T17:33:03.119Z,68.03
2023-04-08T17:35:32.555Z,69.14
2023-04-08T17:38:00.562Z,70.04
2023-04-08T17:40:30.010Z,70.80
2023-04-08T17:42:58.114Z,71.29
2023-04-08T17:45:26.486Z,72.04
2023-04-08T17:47:54.612Z,72.03
2023-04-08T17:50:22.744Z,72.68
2023-04-08T17:52:51.118Z,73.12
2023-04-08T17:55:19.221Z,73.53
2023-04-08T17:57:49.696Z,73.46
2023-04-08T18:00:17.840Z,73.91
2023-04-08T18:02:47.710Z,74.07
2023-04-08T18:05:17.686Z,73.85
2023-04-08T18:07:46.061Z,73.71
2023-04-08T18:10:14.310Z,73.84
2023-04-08T18:12:42.349Z,74.17
2023-04-08T18:15:12.392Z,74.27
2023-04-08T18:17:40.470Z,74.25
2023-04-08T18:20:09.530Z,74.42
2023-04-08T18:22:37.596Z,74.72
2023-04-08T18:25:06.458Z,75.03
2023-04-08T18:27:34.533Z,74.83
2023-04-08T18:30:02.570Z,75.02
2023-04-08T18:32:32.015Z,75.31
2023-04-08T18:35:00.186Z,75.43
2023-04-08T18:37:30.335Z,75.60
2023-04-08T18:39:58.951Z,75.77
2023-04-08T18:42:27.032Z,75.96
2023-04-08T18:44:55.384Z,75.90
2023-04-08T18:47:23.431Z,75.52
2023-04-08T18:49:52.833Z,75.77
2023-04-08T18:52:20.920Z,75.88
2023-04-08T18:54:49.164Z,76.20
2023-04-08T18:57:17.513Z,76.13
2023-04-08T18:59:47.629Z,76.42
2023-04-08T19:02:16.384Z,76.30
2023-04-08T19:04:44.499Z,76.66
2023-04-08T19:07:13.868Z,76.70
2023-04-08T19:09:41.900Z,75.59
2023-04-08T19:12:09.993Z,75.20
2023-04-08T19:14:37.962Z,75.36
2023-04-08T19:17:05.953Z,74.56
2023-04-08T19:19:34.551Z,74.26
2023-04-08T19:22:05.627Z,74.60
2023-04-08T19:24:35.150Z,74.85
2023-04-08T19:27:03.219Z,74.63
2023-04-08T19:29:32.807Z,74.85
2023-04-08T19:32:01.619Z,75.27
2023-04-08T19:34:29.991Z,75.16
2023-04-08T19:36:58.082Z,75.82
2023-04-08T19:39:27.591Z,75.40
2023-04-08T19:41:58.013Z,75.92
2023-04-08T19:44:26.277Z,76.23
2023-04-08T19:46:54.671Z,76.20
2023-04-08T19:49:22.790Z,75.90
2023-04-08T19:51:50.915Z,76.11
2023-04-08T19:54:19.089Z,76.00
2023-04-08T19:56:47.412Z,75.56
2023-04-08T19:59:17.164Z,76.02
2023-04-08T20:01:45.231Z,75.86
2023-04-08T20:04:13.423Z,75.82
2023-04-08T20:06:41.586Z,75.82
2023-04-08T20:09:09.618Z,75.83
2023-04-08T20:11:37.597Z,75.79
2023-04-08T20:14:05.586Z,76.28
2023-04-08T20:16:35.013Z,76.50
2023-04-08T20:19:03.044Z,76.18
2023-04-08T20:21:31.251Z,76.26
2023-04-08T20:23:59.309Z,76.46
2023-04-08T20:26:27.582Z,76.04
2023-04-08T20:28:58.484Z,76.43
2023-04-08T20:31:27.877Z,76.76
2023-04-08T20:33:57.305Z,76.57
2023-04-08T20:36:25.677Z,77.21
2023-04-08T20:38:54.930Z,77.42
2023-04-08T20:41:23.966Z,77.18
2023-04-08T20:43:53.255Z,77.51
2023-04-08T20:46:22.350Z,77.57
2023-04-08T20:48:50.835Z,77.68
2023-04-08T20:51:20.380Z,77.94
2023-04-08T20:53:48.454Z,77.26
2023-04-08T20:56:16.462Z,77.00
2023-04-08T20:58:44.502Z,76.76
2023-04-08T21:01:12.517Z,76.67
2023-04-08T21:03:40.711Z,75.88
2023-04-08T21:06:09.050Z,76.01
2023-04-08T21:08:38.398Z,75.76
2023-04-08T21:11:07.072Z,75.73
2023-04-08T21:13:35.178Z,75.27
2023-04-08T21:16:03.259Z,75.21
2023-04-08T21:18:31.444Z,75.27
2023-04-08T21:20:59.470Z,75.37
2023-04-08T21:23:28.219Z,75.58
2023-04-08T21:25:57.553Z,75.69
2023-04-08T21:28:26.357Z,75.58
2023-04-08T21:30:54.828Z,74.73
2023-04-08T21:33:23.100Z,74.98
2023-04-08T21:35:51.600Z,75.10
2023-04-08T21:38:21.301Z,74.71
2023-04-08T21:40:49.547Z,75.15
2023-04-08T21:43:18.877Z,74.73
2023-04-08T21:45:47.103Z,74.97
2023-04-08T21:48:15.420Z,74.61
2023-04-08T21:50:45.600Z,74.85
2023-04-08T21:53:13.691Z,75.18
2023-04-08T21:55:41.697Z,75.37
2023-04-08T21:58:12.146Z,76.34
2023-04-08T22:00:41.608Z,76.16
2023-04-08T22:03:09.829Z,76.32
2023-04-08T22:05:37.962Z,77.00
2023-04-08T22:08:06.439Z,76.82
2023-04-08T22:10:34.502Z,77.33
2023-04-08T22:13:02.908Z,77.37
2023-04-08T22:15:31.155Z,77.67
2023-04-08T22:18:01.672Z,78.03
2023-04-08T22:20:29.790Z,78.29
2023-04-08T22:22:57.801Z,78.61
2023-04-08T22:25:26.088Z,78.87
2023-04-08T22:27:54.065Z,79.14
2023-04-08T22:30:22.412Z,79.26
2023-04-08T22:32:50.603Z,79.49
2023-04-08T22:35:20.093Z,79.66
2023-04-08T22:37:48.090Z,79.93
2023-04-08T22:40:16.250Z,80.48
2023-04-08T22:42:44.336Z,80.95
2023-04-08T22:45:12.405Z,81.05
2023-04-08T22:47:40.400Z,81.35
2023-04-08T22:50:09.068Z,81.62
2023-04-08T22:52:38.344Z,81.91
2023-04-08T22:55:07.315Z,82.05
2023-04-08T22:57:35.391Z,82.41
2023-04-08T23:00:04.746Z,82.77
2023-04-08T23:02:32.978Z,83.40
2023-04-08T23:05:01.297Z,83.85
2023-04-08T23:07:29.376Z,83.94
2023-04-08T23:09:58.762Z,84.25
2023-04-08T23:12:26.763Z,84.47
2023-04-08T23:14:55.019Z,84.41
2023-04-08T23:17:23.097Z,84.51
2023-04-08T23:19:51.317Z,84.91
2023-04-08T23:22:19.352Z,85.20
2023-04-08T23:24:47.292Z,85.31
2023-04-08T23:27:22.285Z,85.66
2023-04-08T23:29:50.315Z,85.79
2023-04-08T23:32:18.367Z,85.97
2023-04-08T23:34:46.401Z,86.23
2023-04-08T23:37:14.455Z,86.38
2023-04-08T23:39:42.508Z,86.49
2023-04-08T23:42:10.549Z,86.84
2023-04-08T23:44:39.859Z,86.93
2023-04-08T23:47:07.859Z,87.42
2023-04-08T23:49:36.146Z,87.74
2023-04-08T23:52:04.548Z,87.89
2023-04-08T23:54:33.807Z,88.29
2023-04-08T23:57:02.111Z,88.44
2023-04-08T23:59:30.159Z,88.38
